sensor_id;sensor_type;location;lat;lon;timestamp;temperature;humidity
23100;DHT22;53791;50.696;4.396;2023-05-07T00:00:51;16.20;99.90
23100;DHT22;53791;50.696;4.396;2023-05-07T00:03:19;16.20;99.90
23100;DHT22;53791;50.696;4.396;2023-05-07T00:05:46;16.10;99.90
23100;DHT22;53791;50.696;4.396;2023-05-07T00:08:14;16.00;99.90
23100;DHT22;53791;50.696;4.396;2023-05-07T00:10:42;15.80;99.90
23100;DHT22;53791;50.696;4.396;2023-05-07T00:13:09;15.70;99.90
23100;DHT22;53791;50.696;4.396;2023-05-07T00:15:37;15.70;99.90
23100;DHT22;53791;50.696;4.396;2023-05-07T00:18:04;15.70;99.90
23100;DHT22;53791;50.696;4.396;2023-05-07T00:20:32;15.60;99.90
23100;DHT22;53791;50.696;4.396;2023-05-07T00:22:59;15.50;99.90
23100;DHT22;53791;50.696;4.396;2023-05-07T00:25:27;15.40;99.90
23100;DHT22;53791;50.696;4.396;2023-05-07T00:27:54;15.30;99.90
23100;DHT22;53791;50.696;4.396;2023-05-07T00:30:22;15.30;99.90
23100;DHT22;53791;50.696;4.396;2023-05-07T00:32:49;15.30;99.90
23100;DHT22;53791;50.696;4.396;2023-05-07T00:35:17;15.20;99.90
23100;DHT22;53791;50.696;4.396;2023-05-07T00:37:45;15.10;99.90
23100;DHT22;53791;50.696;4.396;2023-05-07T00:40:26;15.00;99.90
23100;DHT22;53791;50.696;4.396;2023-05-07T00:42:53;14.90;99.90
23100;DHT22;53791;50.696;4.396;2023-05-07T00:45:26;14.90;99.90
23100;DHT22;53791;50.696;4.396;2023-05-07T00:47:56;14.80;99.90
23100;DHT22;53791;50.696;4.396;2023-05-07T00:50:24;14.80;99.90
23100;DHT22;53791;50.696;4.396;2023-05-07T00:52:53;15.00;99.90
23100;DHT22;53791;50.696;4.396;2023-05-07T00:55:22;15.10;99.90
23100;DHT22;53791;50.696;4.396;2023-05-07T00:57:50;15.20;99.90
23100;DHT22;53791;50.696;4.396;2023-05-07T01:00:23;15.20;99.90
23100;DHT22;53791;50.696;4.396;2023-05-07T01:02:47;15.40;99.90
23100;DHT22;53791;50.696;4.396;2023-05-07T01:05:17;15.60;99.90
23100;DHT22;53791;50.696;4.396;2023-05-07T01:07:46;15.70;99.90
23100;DHT22;53791;50.696;4.396;2023-05-07T01:10:15;15.70;99.90
23100;DHT22;53791;50.696;4.396;2023-05-07T01:12:43;15.70;99.90
23100;DHT22;53791;50.696;4.396;2023-05-07T01:15:12;15.80;99.90
23100;DHT22;53791;50.696;4.396;2023-05-07T01:17:41;15.80;99.90
23100;DHT22;53791;50.696;4.396;2023-05-07T01:20:09;15.50;99.90
23100;DHT22;53791;50.696;4.396;2023-05-07T01:22:39;15.30;99.90
23100;DHT22;53791;50.696;4.396;2023-05-07T01:25:07;15.30;99.90
23100;DHT22;53791;50.696;4.396;2023-05-07T01:27:35;15.30;99.90
23100;DHT22;53791;50.696;4.396;2023-05-07T01:30:12;15.30;99.90
23100;DHT22;53791;50.696;4.396;2023-05-07T01:32:49;15.10;99.90
23100;DHT22;53791;50.696;4.396;2023-05-07T01:35:15;15.20;99.90
23100;DHT22;53791;50.696;4.396;2023-05-07T01:37:43;15.30;99.90
23100;DHT22;53791;50.696;4.396;2023-05-07T01:40:12;15.30;99.90
23100;DHT22;53791;50.696;4.396;2023-05-07T01:42:41;15.30;99.90
23100;DHT22;53791;50.696;4.396;2023-05-07T01:45:09;15.20;99.90
23100;DHT22;53791;50.696;4.396;2023-05-07T01:47:37;15.20;99.90
23100;DHT22;53791;50.696;4.396;2023-05-07T01:50:09;15.20;99.90
23100;DHT22;53791;50.696;4.396;2023-05-07T01:52:38;15.10;99.90
23100;DHT22;53791;50.696;4.396;2023-05-07T01:55:06;15.20;99.90
23100;DHT22;53791;50.696;4.396;2023-05-07T01:57:34;15.10;99.90
23100;DHT22;53791;50.696;4.396;2023-05-07T02:00:02;15.10;99.90
23100;DHT22;53791;50.696;4.396;2023-05-07T02:02:31;15.10;99.90
23100;DHT22;53791;50.696;4.396;2023-05-07T02:04:59;15.10;99.90
23100;DHT22;53791;50.696;4.396;2023-05-07T02:07:29;15.10;99.90
23100;DHT22;53791;50.696;4.396;2023-05-07T02:09:56;15.10;99.90
23100;DHT22;53791;50.696;4.396;2023-05-07T02:12:24;14.90;99.90
23100;DHT22;53791;50.696;4.396;2023-05-07T02:14:51;14.80;99.90
23100;DHT22;53791;50.696;4.396;2023-05-07T02:17:19;14.90;99.90
23100;DHT22;53791;50.696;4.396;2023-05-07T02:19:46;14.90;99.90
23100;DHT22;53791;50.696;4.396;2023-05-07T02:22:14;15.10;99.90
23100;DHT22;53791;50.696;4.396;2023-05-07T02:24:42;15.10;99.90
23100;DHT22;53791;50.696;4.396;2023-05-07T02:27:09;15.00;99.90
23100;DHT22;53791;50.696;4.396;2023-05-07T02:29:37;14.90;99.90
23100;DHT22;53791;50.696;4.396;2023-05-07T02:32:05;14.90;99.90
23100;DHT22;53791;50.696;4.396;2023-05-07T02:34:32;14.90;99.90
23100;DHT22;53791;50.696;4.396;2023-05-07T02:37:00;14.90;99.90
23100;DHT22;53791;50.696;4.396;2023-05-07T02:39:27;14.80;99.90
23100;DHT22;53791;50.696;4.396;2023-05-07T02:41:55;14.70;99.90
23100;DHT22;53791;50.696;4.396;2023-05-07T02:44:22;14.60;99.90
23100;DHT22;53791;50.696;4.396;2023-05-07T02:46:50;14.50;99.90
23100;DHT22;53791;50.696;4.396;2023-05-07T02:49:17;14.40;99.90
23100;DHT22;53791;50.696;4.396;2023-05-07T02:51:45;14.40;99.90
23100;DHT22;53791;50.696;4.396;2023-05-07T02:54:12;14.40;99.90
23100;DHT22;53791;50.696;4.396;2023-05-07T02:56:40;14.50;99.90
23100;DHT22;53791;50.696;4.396;2023-05-07T02:59:07;14.60;99.90
23100;DHT22;53791;50.696;4.396;2023-05-07T03:01:35;14.70;99.90
23100;DHT22;53791;50.696;4.396;2023-05-07T03:04:02;14.70;99.90
23100;DHT22;53791;50.696;4.396;2023-05-07T03:06:30;14.80;99.90
23100;DHT22;53791;50.696;4.396;2023-05-07T03:08:58;14.70;99.90
23100;DHT22;53791;50.696;4.396;2023-05-07T03:11:25;14.60;99.90
23100;DHT22;53791;50.696;4.396;2023-05-07T03:13:53;14.40;99.90
23100;DHT22;53791;50.696;4.396;2023-05-07T03:16:21;14.20;99.90
23100;DHT22;53791;50.696;4.396;2023-05-07T03:18:48;14.20;99.90
23100;DHT22;53791;50.696;4.396;2023-05-07T03:21:16;14.30;99.90
23100;DHT22;53791;50.696;4.396;2023-05-07T03:23:43;14.50;99.90
23100;DHT22;53791;50.696;4.396;2023-05-07T03:26:11;14.60;99.90
23100;DHT22;53791;50.696;4.396;2023-05-07T03:28:38;14.70;99.90
23100;DHT22;53791;50.696;4.396;2023-05-07T03:31:06;14.70;99.90
23100;DHT22;53791;50.696;4.396;2023-05-07T03:33:34;14.70;99.90
23100;DHT22;53791;50.696;4.396;2023-05-07T03:36:01;14.90;99.90
23100;DHT22;53791;50.696;4.396;2023-05-07T03:38:29;14.90;99.90
23100;DHT22;53791;50.696;4.396;2023-05-07T03:40:56;14.80;99.90
23100;DHT22;53791;50.696;4.396;2023-05-07T03:43:24;14.70;99.90
23100;DHT22;53791;50.696;4.396;2023-05-07T03:45:51;14.70;99.90
23100;DHT22;53791;50.696;4.396;2023-05-07T03:48:19;14.70;99.90
23100;DHT22;53791;50.696;4.396;2023-05-07T03:50:46;14.80;99.90
23100;DHT22;53791;50.696;4.396;2023-05-07T03:53:14;14.70;99.90
23100;DHT22;53791;50.696;4.396;2023-05-07T03:55:41;14.60;99.90
23100;DHT22;53791;50.696;4.396;2023-05-07T03:58:09;14.50;99.90
23100;DHT22;53791;50.696;4.396;2023-05-07T04:00:36;14.50;99.90
23100;DHT22;53791;50.696;4.396;2023-05-07T04:03:06;14.70;99.90
23100;DHT22;53791;50.696;4.396;2023-05-07T04:05:33;14.80;99.90
23100;DHT22;53791;50.696;4.396;2023-05-07T04:08:01;14.90;99.90
23100;DHT22;53791;50.696;4.396;2023-05-07T04:10:29;15.00;99.90
23100;DHT22;53791;50.696;4.396;2023-05-07T04:12:57;15.00;99.90
23100;DHT22;53791;50.696;4.396;2023-05-07T04:15:24;15.00;99.90
23100;DHT22;53791;50.696;4.396;2023-05-07T04:17:52;15.10;99.90
23100;DHT22;53791;50.696;4.396;2023-05-07T04:20:19;15.20;99.90
23100;DHT22;53791;50.696;4.396;2023-05-07T04:22:47;15.20;99.90
23100;DHT22;53791;50.696;4.396;2023-05-07T04:25:16;15.20;99.90
23100;DHT22;53791;50.696;4.396;2023-05-07T04:27:43;15.20;99.90
23100;DHT22;53791;50.696;4.396;2023-05-07T04:30:12;15.20;99.90
23100;DHT22;53791;50.696;4.396;2023-05-07T04:32:39;15.20;99.90
23100;DHT22;53791;50.696;4.396;2023-05-07T04:35:07;15.20;99.90
23100;DHT22;53791;50.696;4.396;2023-05-07T04:37:35;15.20;99.90
23100;DHT22;53791;50.696;4.396;2023-05-07T04:40:03;15.20;99.90
23100;DHT22;53791;50.696;4.396;2023-05-07T04:42:30;15.10;99.90
23100;DHT22;53791;50.696;4.396;2023-05-07T04:44:58;15.00;99.90
23100;DHT22;53791;50.696;4.396;2023-05-07T04:47:26;14.80;99.90
23100;DHT22;53791;50.696;4.396;2023-05-07T04:49:54;14.70;99.90
23100;DHT22;53791;50.696;4.396;2023-05-07T04:52:21;14.80;99.90
23100;DHT22;53791;50.696;4.396;2023-05-07T04:54:49;15.00;99.90
23100;DHT22;53791;50.696;4.396;2023-05-07T04:57:16;15.10;99.90
23100;DHT22;53791;50.696;4.396;2023-05-07T04:59:44;15.20;99.90
23100;DHT22;53791;50.696;4.396;2023-05-07T05:02:12;15.30;99.90
23100;DHT22;53791;50.696;4.396;2023-05-07T05:04:39;15.40;99.90
23100;DHT22;53791;50.696;4.396;2023-05-07T05:07:07;15.50;99.90
23100;DHT22;53791;50.696;4.396;2023-05-07T05:09:34;15.60;99.90
23100;DHT22;53791;50.696;4.396;2023-05-07T05:12:02;15.70;99.90
23100;DHT22;53791;50.696;4.396;2023-05-07T05:17:25;15.60;99.90
23100;DHT22;53791;50.696;4.396;2023-05-07T05:19:57;15.60;99.90
23100;DHT22;53791;50.696;4.396;2023-05-07T05:22:27;15.70;99.90
23100;DHT22;53791;50.696;4.396;2023-05-07T05:24:57;15.70;99.90
23100;DHT22;53791;50.696;4.396;2023-05-07T05:27:24;15.80;99.90
23100;DHT22;53791;50.696;4.396;2023-05-07T05:29:52;15.80;99.90
23100;DHT22;53791;50.696;4.396;2023-05-07T05:32:19;15.90;99.90
23100;DHT22;53791;50.696;4.396;2023-05-07T05:34:47;16.00;99.90
23100;DHT22;53791;50.696;4.396;2023-05-07T05:37:15;16.10;99.90
23100;DHT22;53791;50.696;4.396;2023-05-07T05:39:42;16.30;99.90
23100;DHT22;53791;50.696;4.396;2023-05-07T05:42:10;16.30;99.90
23100;DHT22;53791;50.696;4.396;2023-05-07T05:44:38;16.40;99.90
23100;DHT22;53791;50.696;4.396;2023-05-07T05:47:05;16.40;99.90
23100;DHT22;53791;50.696;4.396;2023-05-07T05:49:40;16.40;99.90
23100;DHT22;53791;50.696;4.396;2023-05-07T05:52:11;16.30;99.90
23100;DHT22;53791;50.696;4.396;2023-05-07T05:54:40;16.20;99.90
23100;DHT22;53791;50.696;4.396;2023-05-07T05:57:07;16.30;99.90
23100;DHT22;53791;50.696;4.396;2023-05-07T05:59:35;16.40;99.90
23100;DHT22;53791;50.696;4.396;2023-05-07T06:02:03;16.30;99.90
23100;DHT22;53791;50.696;4.396;2023-05-07T06:04:31;16.30;99.90
23100;DHT22;53791;50.696;4.396;2023-05-07T06:06:58;16.40;99.90
23100;DHT22;53791;50.696;4.396;2023-05-07T06:09:26;16.30;99.90
23100;DHT22;53791;50.696;4.396;2023-05-07T06:11:53;16.10;99.90
23100;DHT22;53791;50.696;4.396;2023-05-07T06:14:21;16.00;99.90
23100;DHT22;53791;50.696;4.396;2023-05-07T06:16:48;15.90;99.90
23100;DHT22;53791;50.696;4.396;2023-05-07T06:19:16;15.90;99.90
23100;DHT22;53791;50.696;4.396;2023-05-07T06:21:45;15.90;99.90
23100;DHT22;53791;50.696;4.396;2023-05-07T06:24:12;15.70;99.90
23100;DHT22;53791;50.696;4.396;2023-05-07T06:26:40;15.60;99.90
23100;DHT22;53791;50.696;4.396;2023-05-07T06:29:07;15.50;99.90
23100;DHT22;53791;50.696;4.396;2023-05-07T06:31:35;15.40;99.90
23100;DHT22;53791;50.696;4.396;2023-05-07T06:34:02;15.50;99.90
23100;DHT22;53791;50.696;4.396;2023-05-07T06:36:32;15.40;99.90
23100;DHT22;53791;50.696;4.396;2023-05-07T06:38:59;15.50;99.90
23100;DHT22;53791;50.696;4.396;2023-05-07T06:41:26;15.60;99.90
23100;DHT22;53791;50.696;4.396;2023-05-07T06:43:54;15.60;99.90
23100;DHT22;53791;50.696;4.396;2023-05-07T06:46:22;15.60;99.90
23100;DHT22;53791;50.696;4.396;2023-05-07T06:48:51;15.60;99.90
23100;DHT22;53791;50.696;4.396;2023-05-07T06:51:19;15.70;99.90
23100;DHT22;53791;50.696;4.396;2023-05-07T06:53:46;15.70;99.90
23100;DHT22;53791;50.696;4.396;2023-05-07T06:56:14;15.70;99.90
23100;DHT22;53791;50.696;4.396;2023-05-07T06:58:41;15.80;99.90
23100;DHT22;53791;50.696;4.396;2023-05-07T07:01:09;15.90;99.90
23100;DHT22;53791;50.696;4.396;2023-05-07T07:10:31;16.00;99.90
23100;DHT22;53791;50.696;4.396;2023-05-07T07:13:27;16.10;99.90
23100;DHT22;53791;50.696;4.396;2023-05-07T07:19:12;16.10;99.90
23100;DHT22;53791;50.696;4.396;2023-05-07T07:24:46;16.20;99.90
23100;DHT22;53791;50.696;4.396;2023-05-07T07:27:21;16.10;99.90
23100;DHT22;53791;50.696;4.396;2023-05-07T07:29:50;16.20;99.90
23100;DHT22;53791;50.696;4.396;2023-05-07T07:32:33;16.20;99.90
23100;DHT22;53791;50.696;4.396;2023-05-07T07:35:07;16.30;99.90
23100;DHT22;53791;50.696;4.396;2023-05-07T07:37:34;16.40;99.90
23100;DHT22;53791;50.696;4.396;2023-05-07T07:40:03;16.50;99.90
23100;DHT22;53791;50.696;4.396;2023-05-07T07:42:30;16.60;99.90
23100;DHT22;53791;50.696;4.396;2023-05-07T07:44:58;16.60;99.90
23100;DHT22;53791;50.696;4.396;2023-05-07T07:47:25;16.60;99.90
23100;DHT22;53791;50.696;4.396;2023-05-07T07:49:53;16.70;99.90
23100;DHT22;53791;50.696;4.396;2023-05-07T07:52:21;16.60;99.90
23100;DHT22;53791;50.696;4.396;2023-05-07T07:54:48;16.70;99.90
23100;DHT22;53791;50.696;4.396;2023-05-07T07:57:16;16.60;99.90
23100;DHT22;53791;50.696;4.396;2023-05-07T07:59:43;16.80;99.90
23100;DHT22;53791;50.696;4.396;2023-05-07T08:02:11;16.60;99.90
23100;DHT22;53791;50.696;4.396;2023-05-07T08:04:39;16.80;99.90
23100;DHT22;53791;50.696;4.396;2023-05-07T08:07:06;16.70;99.90
23100;DHT22;53791;50.696;4.396;2023-05-07T08:09:34;16.50;99.90
23100;DHT22;53791;50.696;4.396;2023-05-07T08:12:02;16.50;99.90
23100;DHT22;53791;50.696;4.396;2023-05-07T08:14:29;16.50;99.90
23100;DHT22;53791;50.696;4.396;2023-05-07T08:16:57;16.60;99.90
23100;DHT22;53791;50.696;4.396;2023-05-07T08:19:24;16.60;99.90
23100;DHT22;53791;50.696;4.396;2023-05-07T08:21:58;16.50;99.90
23100;DHT22;53791;50.696;4.396;2023-05-07T08:24:23;16.40;99.90
23100;DHT22;53791;50.696;4.396;2023-05-07T08:26:50;16.50;99.90
23100;DHT22;53791;50.696;4.396;2023-05-07T08:29:18;16.60;99.90
23100;DHT22;53791;50.696;4.396;2023-05-07T08:31:46;16.60;99.90
23100;DHT22;53791;50.696;4.396;2023-05-07T08:34:13;16.50;99.90
23100;DHT22;53791;50.696;4.396;2023-05-07T08:36:41;16.60;99.90
23100;DHT22;53791;50.696;4.396;2023-05-07T08:39:08;16.60;99.90
23100;DHT22;53791;50.696;4.396;2023-05-07T08:41:36;16.60;99.90
23100;DHT22;53791;50.696;4.396;2023-05-07T08:44:05;16.60;99.90
23100;DHT22;53791;50.696;4.396;2023-05-07T08:46:34;16.50;99.90
23100;DHT22;53791;50.696;4.396;2023-05-07T08:49:02;16.50;99.90
23100;DHT22;53791;50.696;4.396;2023-05-07T08:51:30;16.40;99.90
23100;DHT22;53791;50.696;4.396;2023-05-07T08:53:59;16.50;99.90
23100;DHT22;53791;50.696;4.396;2023-05-07T08:56:28;16.70;99.90
23100;DHT22;53791;50.696;4.396;2023-05-07T08:58:56;16.70;99.90
23100;DHT22;53791;50.696;4.396;2023-05-07T09:01:25;16.70;99.90
23100;DHT22;53791;50.696;4.396;2023-05-07T09:03:53;16.40;99.90
23100;DHT22;53791;50.696;4.396;2023-05-07T09:06:21;16.10;99.90
23100;DHT22;53791;50.696;4.396;2023-05-07T09:08:53;16.00;99.90
23100;DHT22;53791;50.696;4.396;2023-05-07T09:11:22;16.10;99.90
23100;DHT22;53791;50.696;4.396;2023-05-07T09:13:56;16.20;99.90
23100;DHT22;53791;50.696;4.396;2023-05-07T09:16:21;16.30;99.90
23100;DHT22;53791;50.696;4.396;2023-05-07T09:18:51;16.50;99.90
23100;DHT22;53791;50.696;4.396;2023-05-07T09:21:20;16.70;99.90
23100;DHT22;53791;50.696;4.396;2023-05-07T09:23:51;16.70;99.90
23100;DHT22;53791;50.696;4.396;2023-05-07T09:26:23;16.80;99.90
23100;DHT22;53791;50.696;4.396;2023-05-07T09:28:51;16.90;99.90
23100;DHT22;53791;50.696;4.396;2023-05-07T09:31:21;17.00;99.90
23100;DHT22;53791;50.696;4.396;2023-05-07T09:33:49;17.00;99.90
23100;DHT22;53791;50.696;4.396;2023-05-07T09:36:18;17.20;99.90
23100;DHT22;53791;50.696;4.396;2023-05-07T09:38:46;17.20;99.90
23100;DHT22;53791;50.696;4.396;2023-05-07T09:41:13;17.10;99.90
23100;DHT22;53791;50.696;4.396;2023-05-07T09:43:42;17.20;99.90
23100;DHT22;53791;50.696;4.396;2023-05-07T09:46:14;17.20;99.90
23100;DHT22;53791;50.696;4.396;2023-05-07T09:48:44;17.20;99.90
23100;DHT22;53791;50.696;4.396;2023-05-07T09:53:43;17.30;99.90
23100;DHT22;53791;50.696;4.396;2023-05-07T09:56:14;17.30;99.90
23100;DHT22;53791;50.696;4.396;2023-05-07T09:58:43;17.30;99.90
23100;DHT22;53791;50.696;4.396;2023-05-07T10:01:12;17.20;99.90
23100;DHT22;53791;50.696;4.396;2023-05-07T10:03:41;17.30;99.90
23100;DHT22;53791;50.696;4.396;2023-05-07T10:06:10;17.30;99.90
23100;DHT22;53791;50.696;4.396;2023-05-07T10:08:38;17.10;99.90
23100;DHT22;53791;50.696;4.396;2023-05-07T10:11:14;17.10;99.90
23100;DHT22;53791;50.696;4.396;2023-05-07T10:13:43;17.10;99.90
23100;DHT22;53791;50.696;4.396;2023-05-07T10:16:10;17.20;99.90
23100;DHT22;53791;50.696;4.396;2023-05-07T10:18:38;17.10;99.90
23100;DHT22;53791;50.696;4.396;2023-05-07T10:21:11;17.20;99.90
23100;DHT22;53791;50.696;4.396;2023-05-07T10:23:39;17.30;99.90
23100;DHT22;53791;50.696;4.396;2023-05-07T10:26:15;17.20;99.90
23100;DHT22;53791;50.696;4.396;2023-05-07T10:34:56;16.90;99.90
23100;DHT22;53791;50.696;4.396;2023-05-07T10:37:35;17.10;99.90
23100;DHT22;53791;50.696;4.396;2023-05-07T10:43:01;17.40;99.90
23100;DHT22;53791;50.696;4.396;2023-05-07T10:45:35;17.50;99.90
23100;DHT22;53791;50.696;4.396;2023-05-07T10:48:15;17.60;99.90
23100;DHT22;53791;50.696;4.396;2023-05-07T10:50:45;17.70;99.90
23100;DHT22;53791;50.696;4.396;2023-05-07T10:53:20;17.60;99.90
23100;DHT22;53791;50.696;4.396;2023-05-07T10:55:50;17.60;99.90
23100;DHT22;53791;50.696;4.396;2023-05-07T10:58:24;17.20;99.90
23100;DHT22;53791;50.696;4.396;2023-05-07T11:15:33;17.40;99.90
23100;DHT22;53791;50.696;4.396;2023-05-07T11:18:07;18.30;99.90
23100;DHT22;53791;50.696;4.396;2023-05-07T11:20:55;18.40;99.90
23100;DHT22;53791;50.696;4.396;2023-05-07T11:26:05;18.30;99.90
23100;DHT22;53791;50.696;4.396;2023-05-07T11:28:38;18.20;99.90
23100;DHT22;53791;50.696;4.396;2023-05-07T11:31:06;18.20;99.90
23100;DHT22;53791;50.696;4.396;2023-05-07T11:33:35;18.00;99.90
23100;DHT22;53791;50.696;4.396;2023-05-07T11:36:03;18.20;99.90
23100;DHT22;53791;50.696;4.396;2023-05-07T11:38:39;18.30;99.90
23100;DHT22;53791;50.696;4.396;2023-05-07T11:41:05;18.30;99.90
23100;DHT22;53791;50.696;4.396;2023-05-07T11:43:33;18.40;99.90
23100;DHT22;53791;50.696;4.396;2023-05-07T11:46:11;18.30;99.90
23100;DHT22;53791;50.696;4.396;2023-05-07T11:48:40;18.20;99.90
23100;DHT22;53791;50.696;4.396;2023-05-07T11:51:08;18.40;99.90
23100;DHT22;53791;50.696;4.396;2023-05-07T11:53:39;18.20;99.90
23100;DHT22;53791;50.696;4.396;2023-05-07T11:56:11;18.30;99.90
23100;DHT22;53791;50.696;4.396;2023-05-07T11:58:40;18.20;99.90
23100;DHT22;53791;50.696;4.396;2023-05-07T12:01:09;18.30;99.90
23100;DHT22;53791;50.696;4.396;2023-05-07T12:03:43;18.00;99.90
23100;DHT22;53791;50.696;4.396;2023-05-07T12:06:09;18.10;99.90
23100;DHT22;53791;50.696;4.396;2023-05-07T12:08:39;18.00;99.90
23100;DHT22;53791;50.696;4.396;2023-05-07T12:11:13;18.00;99.90
23100;DHT22;53791;50.696;4.396;2023-05-07T12:13:40;18.00;99.90
23100;DHT22;53791;50.696;4.396;2023-05-07T12:16:08;18.20;99.90
23100;DHT22;53791;50.696;4.396;2023-05-07T12:18:36;18.20;99.90
23100;DHT22;53791;50.696;4.396;2023-05-07T12:21:05;18.30;99.90
23100;DHT22;53791;50.696;4.396;2023-05-07T12:23:35;18.30;99.90
23100;DHT22;53791;50.696;4.396;2023-05-07T12:26:03;18.30;99.90
23100;DHT22;53791;50.696;4.396;2023-05-07T12:28:37;18.30;99.90
23100;DHT22;53791;50.696;4.396;2023-05-07T12:31:05;18.10;99.90
23100;DHT22;53791;50.696;4.396;2023-05-07T12:33:33;18.10;99.90
23100;DHT22;53791;50.696;4.396;2023-05-07T12:36:03;18.20;99.90
23100;DHT22;53791;50.696;4.396;2023-05-07T12:38:34;18.20;99.90
23100;DHT22;53791;50.696;4.396;2023-05-07T12:41:02;18.20;99.90
23100;DHT22;53791;50.696;4.396;2023-05-07T12:43:30;18.20;99.90
23100;DHT22;53791;50.696;4.396;2023-05-07T12:46:03;18.30;99.90
23100;DHT22;53791;50.696;4.396;2023-05-07T12:48:30;18.20;99.90
23100;DHT22;53791;50.696;4.396;2023-05-07T12:51:00;18.20;99.90
23100;DHT22;53791;50.696;4.396;2023-05-07T12:53:29;18.20;99.90
23100;DHT22;53791;50.696;4.396;2023-05-07T12:55:58;18.20;99.90
23100;DHT22;53791;50.696;4.396;2023-05-07T12:58:30;18.30;99.90
23100;DHT22;53791;50.696;4.396;2023-05-07T13:01:00;18.40;99.90
23100;DHT22;53791;50.696;4.396;2023-05-07T13:03:36;18.40;99.90
23100;DHT22;53791;50.696;4.396;2023-05-07T13:06:08;18.40;99.90
23100;DHT22;53791;50.696;4.396;2023-05-07T13:08:38;18.40;99.90
23100;DHT22;53791;50.696;4.396;2023-05-07T13:11:08;18.40;99.90
23100;DHT22;53791;50.696;4.396;2023-05-07T13:13:37;18.50;99.90
23100;DHT22;53791;50.696;4.396;2023-05-07T13:16:07;18.50;99.90
23100;DHT22;53791;50.696;4.396;2023-05-07T13:18:35;18.50;99.90
23100;DHT22;53791;50.696;4.396;2023-05-07T13:21:03;18.60;99.90
23100;DHT22;53791;50.696;4.396;2023-05-07T13:23:33;18.70;99.90
23100;DHT22;53791;50.696;4.396;2023-05-07T13:26:11;18.60;99.90
23100;DHT22;53791;50.696;4.396;2023-05-07T13:28:39;18.50;99.90
23100;DHT22;53791;50.696;4.396;2023-05-07T13:31:06;18.30;99.90
23100;DHT22;53791;50.696;4.396;2023-05-07T13:36:14;18.10;99.90
23100;DHT22;53791;50.696;4.396;2023-05-07T13:38:40;18.00;99.90
23100;DHT22;53791;50.696;4.396;2023-05-07T13:41:09;18.10;99.90
23100;DHT22;53791;50.696;4.396;2023-05-07T13:43:40;18.20;99.90
23100;DHT22;53791;50.696;4.396;2023-05-07T13:46:07;18.30;99.90
23100;DHT22;53791;50.696;4.396;2023-05-07T13:58:24;18.30;99.90
23100;DHT22;53791;50.696;4.396;2023-05-07T14:00:52;18.20;99.90
23100;DHT22;53791;50.696;4.396;2023-05-07T14:03:19;18.40;99.90
23100;DHT22;53791;50.696;4.396;2023-05-07T14:05:47;18.20;99.90
23100;DHT22;53791;50.696;4.396;2023-05-07T14:08:14;18.20;99.90
23100;DHT22;53791;50.696;4.396;2023-05-07T14:10:44;18.20;99.90
23100;DHT22;53791;50.696;4.396;2023-05-07T14:13:12;18.20;99.90
23100;DHT22;53791;50.696;4.396;2023-05-07T14:15:43;18.10;99.90
23100;DHT22;53791;50.696;4.396;2023-05-07T14:21:08;18.10;99.90
23100;DHT22;53791;50.696;4.396;2023-05-07T14:23:42;18.10;99.90
23100;DHT22;53791;50.696;4.396;2023-05-07T14:26:09;18.00;99.90
23100;DHT22;53791;50.696;4.396;2023-05-07T14:28:37;18.10;99.90
23100;DHT22;53791;50.696;4.396;2023-05-07T14:31:09;18.20;99.90
23100;DHT22;53791;50.696;4.396;2023-05-07T14:33:42;18.20;99.90
23100;DHT22;53791;50.696;4.396;2023-05-07T14:36:11;18.40;99.90
23100;DHT22;53791;50.696;4.396;2023-05-07T14:38:40;18.30;99.90
23100;DHT22;53791;50.696;4.396;2023-05-07T14:41:09;18.40;99.90
23100;DHT22;53791;50.696;4.396;2023-05-07T14:43:41;18.30;99.90
23100;DHT22;53791;50.696;4.396;2023-05-07T14:46:09;18.40;99.90
23100;DHT22;53791;50.696;4.396;2023-05-07T14:49:06;18.40;99.90
23100;DHT22;53791;50.696;4.396;2023-05-07T14:51:33;18.50;99.90
23100;DHT22;53791;50.696;4.396;2023-05-07T14:54:06;18.40;99.90
23100;DHT22;53791;50.696;4.396;2023-05-07T14:56:35;18.50;99.90
23100;DHT22;53791;50.696;4.396;2023-05-07T14:59:07;18.60;99.90
23100;DHT22;53791;50.696;4.396;2023-05-07T15:01:55;18.60;99.90
23100;DHT22;53791;50.696;4.396;2023-05-07T15:04:19;18.60;99.90
23100;DHT22;53791;50.696;4.396;2023-05-07T15:06:53;18.70;99.90
23100;DHT22;53791;50.696;4.396;2023-05-07T15:09:28;18.70;99.90
23100;DHT22;53791;50.696;4.396;2023-05-07T15:11:53;18.60;99.90
23100;DHT22;53791;50.696;4.396;2023-05-07T15:14:21;18.70;99.90
23100;DHT22;53791;50.696;4.396;2023-05-07T15:16:49;18.80;99.90
23100;DHT22;53791;50.696;4.396;2023-05-07T15:19:16;18.90;99.90
23100;DHT22;53791;50.696;4.396;2023-05-07T15:21:44;18.90;99.90
23100;DHT22;53791;50.696;4.396;2023-05-07T15:24:11;18.80;99.90
23100;DHT22;53791;50.696;4.396;2023-05-07T15:26:39;18.60;99.90
23100;DHT22;53791;50.696;4.396;2023-05-07T15:29:06;18.40;99.90
23100;DHT22;53791;50.696;4.396;2023-05-07T15:31:36;18.50;99.90
23100;DHT22;53791;50.696;4.396;2023-05-07T15:34:06;18.60;99.90
23100;DHT22;53791;50.696;4.396;2023-05-07T15:36:34;18.70;99.90
23100;DHT22;53791;50.696;4.396;2023-05-07T15:39:02;18.60;99.90
23100;DHT22;53791;50.696;4.396;2023-05-07T15:41:30;18.70;99.90
23100;DHT22;53791;50.696;4.396;2023-05-07T15:44:01;18.70;99.90
23100;DHT22;53791;50.696;4.396;2023-05-07T15:46:29;18.40;99.90
23100;DHT22;53791;50.696;4.396;2023-05-07T15:48:57;18.50;99.90
23100;DHT22;53791;50.696;4.396;2023-05-07T15:51:24;18.60;99.90
23100;DHT22;53791;50.696;4.396;2023-05-07T15:53:53;18.70;99.90
23100;DHT22;53791;50.696;4.396;2023-05-07T15:56:21;18.80;99.90
23100;DHT22;53791;50.696;4.396;2023-05-07T15:58:51;18.80;99.90
23100;DHT22;53791;50.696;4.396;2023-05-07T16:01:19;19.00;99.90
23100;DHT22;53791;50.696;4.396;2023-05-07T16:03:46;19.10;99.90
23100;DHT22;53791;50.696;4.396;2023-05-07T16:06:14;19.20;99.90
23100;DHT22;53791;50.696;4.396;2023-05-07T16:08:41;19.30;99.90
23100;DHT22;53791;50.696;4.396;2023-05-07T16:11:10;19.30;99.90
23100;DHT22;53791;50.696;4.396;2023-05-07T16:13:37;19.30;99.90
23100;DHT22;53791;50.696;4.396;2023-05-07T16:16:05;19.30;99.90
23100;DHT22;53791;50.696;4.396;2023-05-07T16:18:34;19.30;99.90
23100;DHT22;53791;50.696;4.396;2023-05-07T16:21:02;19.30;99.90
23100;DHT22;53791;50.696;4.396;2023-05-07T16:23:30;19.30;99.90
23100;DHT22;53791;50.696;4.396;2023-05-07T16:25:57;19.40;99.90
23100;DHT22;53791;50.696;4.396;2023-05-07T16:28:26;19.30;99.90
23100;DHT22;53791;50.696;4.396;2023-05-07T16:30:54;19.40;99.90
23100;DHT22;53791;50.696;4.396;2023-05-07T16:33:24;19.30;99.90
23100;DHT22;53791;50.696;4.396;2023-05-07T16:35:52;19.30;99.90
23100;DHT22;53791;50.696;4.396;2023-05-07T16:38:20;19.30;99.90
23100;DHT22;53791;50.696;4.396;2023-05-07T16:40:47;19.30;99.90